sensor_id;sensor_type;location;lat;lon;timestamp;temperature;humidity
8539;DHT22;4307;53.868;11.680;2023-06-14T00:01:46;14.50;99.70
8539;DHT22;4307;53.868;11.680;2023-06-14T00:04:14;14.50;99.90
8539;DHT22;4307;53.868;11.680;2023-06-14T00:06:42;14.40;99.90
8539;DHT22;4307;53.868;11.680;2023-06-14T00:09:11;14.40;99.90
8539;DHT22;4307;53.868;11.680;2023-06-14T00:11:39;14.40;99.90
8539;DHT22;4307;53.868;11.680;2023-06-14T00:14:05;14.40;99.90
8539;DHT22;4307;53.868;11.680;2023-06-14T00:16:32;14.40;99.90
8539;DHT22;4307;53.868;11.680;2023-06-14T00:19:00;14.40;99.90
8539;DHT22;4307;53.868;11.680;2023-06-14T00:21:28;14.30;99.90
8539;DHT22;4307;53.868;11.680;2023-06-14T00:23:55;14.40;99.90
8539;DHT22;4307;53.868;11.680;2023-06-14T00:26:23;14.40;99.90
8539;DHT22;4307;53.868;11.680;2023-06-14T00:28:51;14.50;99.90
8539;DHT22;4307;53.868;11.680;2023-06-14T00:31:18;14.40;99.90
8539;DHT22;4307;53.868;11.680;2023-06-14T00:33:45;14.50;99.90
8539;DHT22;4307;53.868;11.680;2023-06-14T00:36:12;14.50;99.90
8539;DHT22;4307;53.868;11.680;2023-06-14T00:38:38;14.50;99.90
8539;DHT22;4307;53.868;11.680;2023-06-14T00:41:05;14.50;99.90
8539;DHT22;4307;53.868;11.680;2023-06-14T00:43:33;14.50;99.90
8539;DHT22;4307;53.868;11.680;2023-06-14T00:46:00;14.50;99.90
8539;DHT22;4307;53.868;11.680;2023-06-14T00:48:28;14.50;99.90
8539;DHT22;4307;53.868;11.680;2023-06-14T00:50:56;14.50;99.90
8539;DHT22;4307;53.868;11.680;2023-06-14T00:53:23;14.50;99.90
8539;DHT22;4307;53.868;11.680;2023-06-14T00:55:50;14.50;99.90
8539;DHT22;4307;53.868;11.680;2023-06-14T00:58:17;14.40;99.90
8539;DHT22;4307;53.868;11.680;2023-06-14T01:00:45;14.40;99.90
8539;DHT22;4307;53.868;11.680;2023-06-14T01:03:12;14.40;99.90
8539;DHT22;4307;53.868;11.680;2023-06-14T01:05:40;14.40;99.90
8539;DHT22;4307;53.868;11.680;2023-06-14T01:08:16;14.40;99.90
8539;DHT22;4307;53.868;11.680;2023-06-14T01:10:52;14.30;99.90
8539;DHT22;4307;53.868;11.680;2023-06-14T01:13:21;14.30;99.90
8539;DHT22;4307;53.868;11.680;2023-06-14T01:15:52;14.30;99.90
8539;DHT22;4307;53.868;11.680;2023-06-14T01:18:19;14.20;99.90
8539;DHT22;4307;53.868;11.680;2023-06-14T01:20:46;14.20;99.90
8539;DHT22;4307;53.868;11.680;2023-06-14T01:23:16;14.20;99.90
8539;DHT22;4307;53.868;11.680;2023-06-14T01:25:43;14.20;99.90
8539;DHT22;4307;53.868;11.680;2023-06-14T01:28:10;14.20;99.90
8539;DHT22;4307;53.868;11.680;2023-06-14T01:30:39;14.30;99.90
8539;DHT22;4307;53.868;11.680;2023-06-14T01:33:08;14.20;99.90
8539;DHT22;4307;53.868;11.680;2023-06-14T01:35:35;14.20;99.90
8539;DHT22;4307;53.868;11.680;2023-06-14T01:38:03;14.20;99.90
8539;DHT22;4307;53.868;11.680;2023-06-14T01:40:32;14.20;99.90
8539;DHT22;4307;53.868;11.680;2023-06-14T01:42:59;14.10;99.90
8539;DHT22;4307;53.868;11.680;2023-06-14T01:45:27;14.10;99.90
8539;DHT22;4307;53.868;11.680;2023-06-14T01:47:55;14.00;99.90
8539;DHT22;4307;53.868;11.680;2023-06-14T01:50:22;13.90;99.90
8539;DHT22;4307;53.868;11.680;2023-06-14T01:52:49;13.90;99.90
8539;DHT22;4307;53.868;11.680;2023-06-14T01:55:15;13.80;99.90
8539;DHT22;4307;53.868;11.680;2023-06-14T01:57:44;13.80;99.90
8539;DHT22;4307;53.868;11.680;2023-06-14T02:00:12;13.80;99.90
8539;DHT22;4307;53.868;11.680;2023-06-14T02:02:40;13.80;99.90
8539;DHT22;4307;53.868;11.680;2023-06-14T02:05:06;13.70;99.90
8539;DHT22;4307;53.868;11.680;2023-06-14T02:07:34;13.70;99.90
8539;DHT22;4307;53.868;11.680;2023-06-14T02:10:01;13.70;99.90
8539;DHT22;4307;53.868;11.680;2023-06-14T02:12:27;13.70;99.90
8539;DHT22;4307;53.868;11.680;2023-06-14T02:14:55;13.70;99.90
8539;DHT22;4307;53.868;11.680;2023-06-14T02:17:23;13.70;99.90
8539;DHT22;4307;53.868;11.680;2023-06-14T02:19:50;13.60;99.90
8539;DHT22;4307;53.868;11.680;2023-06-14T02:22:17;13.60;99.90
8539;DHT22;4307;53.868;11.680;2023-06-14T02:24:45;13.60;99.90
8539;DHT22;4307;53.868;11.680;2023-06-14T02:27:12;13.60;99.90
8539;DHT22;4307;53.868;11.680;2023-06-14T02:29:39;13.60;99.90
8539;DHT22;4307;53.868;11.680;2023-06-14T02:32:08;13.60;99.90
8539;DHT22;4307;53.868;11.680;2023-06-14T02:34:35;13.70;99.90
8539;DHT22;4307;53.868;11.680;2023-06-14T02:37:02;13.70;99.90
8539;DHT22;4307;53.868;11.680;2023-06-14T02:39:29;13.70;99.90
8539;DHT22;4307;53.868;11.680;2023-06-14T02:41:55;13.70;99.90
8539;DHT22;4307;53.868;11.680;2023-06-14T02:44:24;13.70;99.90
8539;DHT22;4307;53.868;11.680;2023-06-14T02:46:52;13.60;99.90
8539;DHT22;4307;53.868;11.680;2023-06-14T02:49:20;13.60;99.90
8539;DHT22;4307;53.868;11.680;2023-06-14T02:51:46;13.60;99.90
8539;DHT22;4307;53.868;11.680;2023-06-14T02:54:13;13.60;99.90
8539;DHT22;4307;53.868;11.680;2023-06-14T02:56:40;13.60;99.90
8539;DHT22;4307;53.868;11.680;2023-06-14T02:59:07;13.60;99.90
8539;DHT22;4307;53.868;11.680;2023-06-14T03:01:34;13.60;99.90
8539;DHT22;4307;53.868;11.680;2023-06-14T03:04:04;13.60;99.90
8539;DHT22;4307;53.868;11.680;2023-06-14T03:06:32;13.60;99.90
8539;DHT22;4307;53.868;11.680;2023-06-14T03:09:00;13.60;99.90
8539;DHT22;4307;53.868;11.680;2023-06-14T03:11:29;13.70;99.90
8539;DHT22;4307;53.868;11.680;2023-06-14T03:13:56;13.80;99.90
8539;DHT22;4307;53.868;11.680;2023-06-14T03:16:24;13.80;99.90
8539;DHT22;4307;53.868;11.680;2023-06-14T03:18:51;14.00;99.90
8539;DHT22;4307;53.868;11.680;2023-06-14T03:21:18;14.10;99.90
8539;DHT22;4307;53.868;11.680;2023-06-14T03:23:47;14.30;99.90
8539;DHT22;4307;53.868;11.680;2023-06-14T03:26:15;14.40;99.90
8539;DHT22;4307;53.868;11.680;2023-06-14T03:28:43;14.60;99.90
8539;DHT22;4307;53.868;11.680;2023-06-14T03:31:10;14.80;99.90
8539;DHT22;4307;53.868;11.680;2023-06-14T03:33:36;14.90;99.90
8539;DHT22;4307;53.868;11.680;2023-06-14T03:36:03;15.20;99.90
8539;DHT22;4307;53.868;11.680;2023-06-14T03:38:30;15.30;99.90
8539;DHT22;4307;53.868;11.680;2023-06-14T03:40:58;15.50;99.90
8539;DHT22;4307;53.868;11.680;2023-06-14T03:43:25;15.80;99.90
8539;DHT22;4307;53.868;11.680;2023-06-14T03:45:51;16.00;99.90
8539;DHT22;4307;53.868;11.680;2023-06-14T03:48:18;16.30;99.90
8539;DHT22;4307;53.868;11.680;2023-06-14T03:50:45;16.50;99.90
8539;DHT22;4307;53.868;11.680;2023-06-14T03:53:12;16.70;99.90
8539;DHT22;4307;53.868;11.680;2023-06-14T03:55:39;17.00;99.90
8539;DHT22;4307;53.868;11.680;2023-06-14T03:58:08;17.20;99.90
8539;DHT22;4307;53.868;11.680;2023-06-14T04:00:34;17.40;99.90
8539;DHT22;4307;53.868;11.680;2023-06-14T04:03:01;17.60;99.90
8539;DHT22;4307;53.868;11.680;2023-06-14T04:05:28;17.80;99.90
8539;DHT22;4307;53.868;11.680;2023-06-14T04:07:55;18.10;99.90
8539;DHT22;4307;53.868;11.680;2023-06-14T04:10:22;18.30;99.90
8539;DHT22;4307;53.868;11.680;2023-06-14T04:12:49;18.50;99.90
8539;DHT22;4307;53.868;11.680;2023-06-14T04:15:18;18.80;99.90
8539;DHT22;4307;53.868;11.680;2023-06-14T04:17:45;19.00;99.90
8539;DHT22;4307;53.868;11.680;2023-06-14T04:20:11;19.20;99.60
8539;DHT22;4307;53.868;11.680;2023-06-14T04:22:38;19.40;99.20
8539;DHT22;4307;53.868;11.680;2023-06-14T04:25:07;19.60;98.60
8539;DHT22;4307;53.868;11.680;2023-06-14T04:27:34;19.80;98.20
8539;DHT22;4307;53.868;11.680;2023-06-14T04:30:01;19.90;97.90
8539;DHT22;4307;53.868;11.680;2023-06-14T04:32:30;20.10;97.60
8539;DHT22;4307;53.868;11.680;2023-06-14T04:34:59;20.30;97.10
8539;DHT22;4307;53.868;11.680;2023-06-14T04:37:27;20.60;96.80
8539;DHT22;4307;53.868;11.680;2023-06-14T04:39:54;20.80;96.40
8539;DHT22;4307;53.868;11.680;2023-06-14T04:42:21;21.10;95.80
8539;DHT22;4307;53.868;11.680;2023-06-14T04:44:50;21.30;95.20
8539;DHT22;4307;53.868;11.680;2023-06-14T04:47:21;21.60;95.00
8539;DHT22;4307;53.868;11.680;2023-06-14T04:49:49;21.70;94.60
8539;DHT22;4307;53.868;11.680;2023-06-14T04:52:19;22.10;94.10
8539;DHT22;4307;53.868;11.680;2023-06-14T04:54:46;22.30;93.70
8539;DHT22;4307;53.868;11.680;2023-06-14T04:57:13;22.70;93.10
8539;DHT22;4307;53.868;11.680;2023-06-14T04:59:42;23.00;92.50
8539;DHT22;4307;53.868;11.680;2023-06-14T05:02:09;23.30;91.80
8539;DHT22;4307;53.868;11.680;2023-06-14T05:04:37;23.60;91.20
8539;DHT22;4307;53.868;11.680;2023-06-14T05:07:07;23.80;90.70
8539;DHT22;4307;53.868;11.680;2023-06-14T05:09:34;24.00;90.20
8539;DHT22;4307;53.868;11.680;2023-06-14T05:12:01;24.20;89.60
8539;DHT22;4307;53.868;11.680;2023-06-14T05:14:28;24.50;88.50
8539;DHT22;4307;53.868;11.680;2023-06-14T05:16:55;24.90;87.50
8539;DHT22;4307;53.868;11.680;2023-06-14T05:19:22;25.20;86.20
8539;DHT22;4307;53.868;11.680;2023-06-14T05:21:49;25.50;85.20
8539;DHT22;4307;53.868;11.680;2023-06-14T05:24:17;25.70;83.90
8539;DHT22;4307;53.868;11.680;2023-06-14T05:26:44;26.00;82.80
8539;DHT22;4307;53.868;11.680;2023-06-14T05:29:11;26.30;82.00
8539;DHT22;4307;53.868;11.680;2023-06-14T05:31:38;26.50;80.90
8539;DHT22;4307;53.868;11.680;2023-06-14T05:34:05;26.70;80.10
8539;DHT22;4307;53.868;11.680;2023-06-14T05:36:32;26.90;79.30
8539;DHT22;4307;53.868;11.680;2023-06-14T05:38:59;27.20;78.60
8539;DHT22;4307;53.868;11.680;2023-06-14T05:41:29;27.50;77.60
8539;DHT22;4307;53.868;11.680;2023-06-14T05:43:56;27.80;76.40
8539;DHT22;4307;53.868;11.680;2023-06-14T05:46:24;28.10;75.50
8539;DHT22;4307;53.868;11.680;2023-06-14T05:48:51;28.30;74.70
8539;DHT22;4307;53.868;11.680;2023-06-14T05:51:17;28.50;74.10
8539;DHT22;4307;53.868;11.680;2023-06-14T05:53:45;28.80;73.30
8539;DHT22;4307;53.868;11.680;2023-06-14T05:56:12;29.00;72.40
8539;DHT22;4307;53.868;11.680;2023-06-14T05:58:40;29.20;71.30
8539;DHT22;4307;53.868;11.680;2023-06-14T06:01:07;29.40;70.40
8539;DHT22;4307;53.868;11.680;2023-06-14T06:03:34;29.60;69.60
8539;DHT22;4307;53.868;11.680;2023-06-14T06:06:01;29.70;68.90
8539;DHT22;4307;53.868;11.680;2023-06-14T06:08:28;29.80;67.90
8539;DHT22;4307;53.868;11.680;2023-06-14T06:10:55;29.60;67.20
8539;DHT22;4307;53.868;11.680;2023-06-14T06:13:22;29.70;66.90
8539;DHT22;4307;53.868;11.680;2023-06-14T06:15:50;29.70;66.30
8539;DHT22;4307;53.868;11.680;2023-06-14T06:18:16;29.80;65.90
8539;DHT22;4307;53.868;11.680;2023-06-14T06:20:43;30.00;65.50
8539;DHT22;4307;53.868;11.680;2023-06-14T06:23:10;30.00;64.50
8539;DHT22;4307;53.868;11.680;2023-06-14T06:25:37;30.00;64.10
8539;DHT22;4307;53.868;11.680;2023-06-14T06:28:04;30.00;63.40
8539;DHT22;4307;53.868;11.680;2023-06-14T06:30:31;29.90;63.10
8539;DHT22;4307;53.868;11.680;2023-06-14T06:32:59;29.90;62.80
8539;DHT22;4307;53.868;11.680;2023-06-14T06:35:25;30.00;62.40
8539;DHT22;4307;53.868;11.680;2023-06-14T06:37:52;30.20;62.20
8539;DHT22;4307;53.868;11.680;2023-06-14T06:40:19;30.20;61.70
8539;DHT22;4307;53.868;11.680;2023-06-14T06:42:45;30.20;60.70
8539;DHT22;4307;53.868;11.680;2023-06-14T06:45:12;30.20;60.20
8539;DHT22;4307;53.868;11.680;2023-06-14T06:47:39;30.20;60.10
8539;DHT22;4307;53.868;11.680;2023-06-14T06:50:08;30.00;59.50
8539;DHT22;4307;53.868;11.680;2023-06-14T06:52:34;29.90;59.90
8539;DHT22;4307;53.868;11.680;2023-06-14T06:55:01;29.90;59.80
8539;DHT22;4307;53.868;11.680;2023-06-14T06:57:28;30.10;59.30
8539;DHT22;4307;53.868;11.680;2023-06-14T06:59:56;30.10;58.80
8539;DHT22;4307;53.868;11.680;2023-06-14T07:02:23;30.10;58.40
8539;DHT22;4307;53.868;11.680;2023-06-14T07:04:50;30.20;58.00
8539;DHT22;4307;53.868;11.680;2023-06-14T07:07:18;30.00;57.40
8539;DHT22;4307;53.868;11.680;2023-06-14T07:09:44;30.00;57.30
8539;DHT22;4307;53.868;11.680;2023-06-14T07:12:11;29.90;56.80
8539;DHT22;4307;53.868;11.680;2023-06-14T07:14:38;29.80;56.90
8539;DHT22;4307;53.868;11.680;2023-06-14T07:17:05;29.70;57.00
8539;DHT22;4307;53.868;11.680;2023-06-14T07:19:32;29.40;57.30
8539;DHT22;4307;53.868;11.680;2023-06-14T07:21:58;29.30;57.30
8539;DHT22;4307;53.868;11.680;2023-06-14T07:24:26;29.20;57.10
8539;DHT22;4307;53.868;11.680;2023-06-14T07:26:54;29.40;57.20
8539;DHT22;4307;53.868;11.680;2023-06-14T07:29:21;29.50;57.00
8539;DHT22;4307;53.868;11.680;2023-06-14T07:31:48;29.50;56.60
8539;DHT22;4307;53.868;11.680;2023-06-14T07:34:15;29.40;56.40
8539;DHT22;4307;53.868;11.680;2023-06-14T07:36:41;29.20;56.30
8539;DHT22;4307;53.868;11.680;2023-06-14T07:39:09;29.00;56.40
8539;DHT22;4307;53.868;11.680;2023-06-14T07:41:38;28.60;56.80
8539;DHT22;4307;53.868;11.680;2023-06-14T07:44:04;28.40;57.00
8539;DHT22;4307;53.868;11.680;2023-06-14T07:46:31;27.90;57.70
8539;DHT22;4307;53.868;11.680;2023-06-14T07:49:00;27.90;58.10
8539;DHT22;4307;53.868;11.680;2023-06-14T07:51:26;28.00;58.10
8539;DHT22;4307;53.868;11.680;2023-06-14T07:53:53;28.30;58.20
8539;DHT22;4307;53.868;11.680;2023-06-14T07:56:20;28.70;57.80
8539;DHT22;4307;53.868;11.680;2023-06-14T07:58:48;28.80;56.80
8539;DHT22;4307;53.868;11.680;2023-06-14T08:01:15;28.80;55.90
8539;DHT22;4307;53.868;11.680;2023-06-14T08:03:42;28.60;56.40
8539;DHT22;4307;53.868;11.680;2023-06-14T08:06:09;28.70;56.80
8539;DHT22;4307;53.868;11.680;2023-06-14T08:08:36;28.90;57.00
8539;DHT22;4307;53.868;11.680;2023-06-14T08:11:02;29.10;56.80
8539;DHT22;4307;53.868;11.680;2023-06-14T08:13:29;29.20;55.70
8539;DHT22;4307;53.868;11.680;2023-06-14T08:15:57;29.20;55.30
8539;DHT22;4307;53.868;11.680;2023-06-14T08:18:26;29.30;55.50
8539;DHT22;4307;53.868;11.680;2023-06-14T08:20:52;29.40;54.90
8539;DHT22;4307;53.868;11.680;2023-06-14T08:23:19;29.20;54.20
8539;DHT22;4307;53.868;11.680;2023-06-14T08:25:47;29.10;54.20
8539;DHT22;4307;53.868;11.680;2023-06-14T08:28:14;29.00;53.60
8539;DHT22;4307;53.868;11.680;2023-06-14T08:30:41;28.60;53.30
8539;DHT22;4307;53.868;11.680;2023-06-14T08:33:09;28.50;53.60
8539;DHT22;4307;53.868;11.680;2023-06-14T08:35:36;28.50;53.20
8539;DHT22;4307;53.868;11.680;2023-06-14T08:38:05;28.40;52.70
8539;DHT22;4307;53.868;11.680;2023-06-14T08:40:37;28.30;52.30
8539;DHT22;4307;53.868;11.680;2023-06-14T08:43:04;28.20;53.00
8539;DHT22;4307;53.868;11.680;2023-06-14T08:45:31;28.20;53.60
8539;DHT22;4307;53.868;11.680;2023-06-14T08:47:58;28.10;52.80
8539;DHT22;4307;53.868;11.680;2023-06-14T08:50:27;27.80;52.60
8539;DHT22;4307;53.868;11.680;2023-06-14T08:52:57;27.40;53.50
8539;DHT22;4307;53.868;11.680;2023-06-14T08:55:27;27.20;53.90
8539;DHT22;4307;53.868;11.680;2023-06-14T08:57:55;27.30;53.80
8539;DHT22;4307;53.868;11.680;2023-06-14T09:00:23;27.50;53.60
8539;DHT22;4307;53.868;11.680;2023-06-14T09:02:50;27.50;53.30
8539;DHT22;4307;53.868;11.680;2023-06-14T09:05:22;27.30;52.70
8539;DHT22;4307;53.868;11.680;2023-06-14T09:07:50;27.10;53.70
8539;DHT22;4307;53.868;11.680;2023-06-14T09:10:18;27.10;54.30
8539;DHT22;4307;53.868;11.680;2023-06-14T09:12:46;27.10;54.00
8539;DHT22;4307;53.868;11.680;2023-06-14T09:15:13;27.00;54.10
8539;DHT22;4307;53.868;11.680;2023-06-14T09:17:41;27.00;54.40
8539;DHT22;4307;53.868;11.680;2023-06-14T09:20:09;27.20;54.80
8539;DHT22;4307;53.868;11.680;2023-06-14T09:22:37;27.40;54.60
8539;DHT22;4307;53.868;11.680;2023-06-14T09:25:06;27.80;54.60
8539;DHT22;4307;53.868;11.680;2023-06-14T09:27:33;27.90;54.00
8539;DHT22;4307;53.868;11.680;2023-06-14T09:30:01;27.90;53.70
8539;DHT22;4307;53.868;11.680;2023-06-14T09:32:28;27.70;53.60
8539;DHT22;4307;53.868;11.680;2023-06-14T09:34:56;27.40;54.20
8539;DHT22;4307;53.868;11.680;2023-06-14T09:37:29;27.50;54.30
8539;DHT22;4307;53.868;11.680;2023-06-14T09:39:56;27.60;54.10
8539;DHT22;4307;53.868;11.680;2023-06-14T09:42:25;27.70;53.70
8539;DHT22;4307;53.868;11.680;2023-06-14T09:44:55;27.90;54.30
8539;DHT22;4307;53.868;11.680;2023-06-14T09:47:22;27.90;52.80
8539;DHT22;4307;53.868;11.680;2023-06-14T09:49:49;28.00;53.30
8539;DHT22;4307;53.868;11.680;2023-06-14T09:52:19;28.10;53.10
8539;DHT22;4307;53.868;11.680;2023-06-14T09:54:46;28.20;52.80
8539;DHT22;4307;53.868;11.680;2023-06-14T09:57:15;28.10;53.10
8539;DHT22;4307;53.868;11.680;2023-06-14T09:59:45;28.10;53.50
8539;DHT22;4307;53.868;11.680;2023-06-14T10:02:18;28.00;53.60
8539;DHT22;4307;53.868;11.680;2023-06-14T10:04:53;27.90;53.50
8539;DHT22;4307;53.868;11.680;2023-06-14T10:07:24;28.00;53.60
8539;DHT22;4307;53.868;11.680;2023-06-14T10:09:53;27.90;53.10
8539;DHT22;4307;53.868;11.680;2023-06-14T10:12:20;27.70;53.20
8539;DHT22;4307;53.868;11.680;2023-06-14T10:14:50;27.50;53.00
8539;DHT22;4307;53.868;11.680;2023-06-14T10:17:25;27.40;53.20
8539;DHT22;4307;53.868;11.680;2023-06-14T10:19:55;27.40;53.70
8539;DHT22;4307;53.868;11.680;2023-06-14T10:22:29;27.30;53.80
8539;DHT22;4307;53.868;11.680;2023-06-14T10:24:57;27.30;54.00
8539;DHT22;4307;53.868;11.680;2023-06-14T10:27:23;27.30;54.20
8539;DHT22;4307;53.868;11.680;2023-06-14T10:30:06;27.20;54.10
8539;DHT22;4307;53.868;11.680;2023-06-14T10:32:33;27.00;54.20
8539;DHT22;4307;53.868;11.680;2023-06-14T10:35:04;26.70;54.60
8539;DHT22;4307;53.868;11.680;2023-06-14T10:37:31;26.50;55.20
8539;DHT22;4307;53.868;11.680;2023-06-14T10:39:58;26.40;55.90
8539;DHT22;4307;53.868;11.680;2023-06-14T10:42:28;26.60;56.00
8539;DHT22;4307;53.868;11.680;2023-06-14T10:44:57;26.70;55.80
8539;DHT22;4307;53.868;11.680;2023-06-14T10:47:28;26.80;55.60
8539;DHT22;4307;53.868;11.680;2023-06-14T10:49:56;26.90;55.30
8539;DHT22;4307;53.868;11.680;2023-06-14T10:52:26;27.10;54.90
8539;DHT22;4307;53.868;11.680;2023-06-14T10:55:05;27.10;54.90
8539;DHT22;4307;53.868;11.680;2023-06-14T10:57:35;27.10;55.10
8539;DHT22;4307;53.868;11.680;2023-06-14T11:00:03;27.30;55.10
8539;DHT22;4307;53.868;11.680;2023-06-14T11:05:54;27.70;54.50
8539;DHT22;4307;53.868;11.680;2023-06-14T11:08:33;27.60;54.50
8539;DHT22;4307;53.868;11.680;2023-06-14T11:11:06;27.30;54.80
8539;DHT22;4307;53.868;11.680;2023-06-14T11:13:34;27.10;54.90
8539;DHT22;4307;53.868;11.680;2023-06-14T11:16:00;27.00;54.90
8539;DHT22;4307;53.868;11.680;2023-06-14T11:18:28;27.00;55.10
8539;DHT22;4307;53.868;11.680;2023-06-14T11:20:56;27.10;55.10
8539;DHT22;4307;53.868;11.680;2023-06-14T11:23:23;27.20;54.60
8539;DHT22;4307;53.868;11.680;2023-06-14T11:25:50;27.00;54.80
8539;DHT22;4307;53.868;11.680;2023-06-14T11:28:17;26.70;54.70
8539;DHT22;4307;53.868;11.680;2023-06-14T11:30:45;26.60;54.80
8539;DHT22;4307;53.868;11.680;2023-06-14T11:33:14;26.40;54.80
8539;DHT22;4307;53.868;11.680;2023-06-14T11:35:42;26.20;55.10
8539;DHT22;4307;53.868;11.680;2023-06-14T11:38:11;26.10;54.80
8539;DHT22;4307;53.868;11.680;2023-06-14T11:40:39;26.30;54.40
8539;DHT22;4307;53.868;11.680;2023-06-14T11:43:05;26.50;54.30
8539;DHT22;4307;53.868;11.680;2023-06-14T11:45:32;26.70;54.00
8539;DHT22;4307;53.868;11.680;2023-06-14T11:47:59;26.90;53.90
8539;DHT22;4307;53.868;11.680;2023-06-14T11:50:27;27.20;53.70
8539;DHT22;4307;53.868;11.680;2023-06-14T11:52:54;27.40;53.20
8539;DHT22;4307;53.868;11.680;2023-06-14T11:55:23;27.40;52.70
8539;DHT22;4307;53.868;11.680;2023-06-14T11:57:50;27.10;52.40
8539;DHT22;4307;53.868;11.680;2023-06-14T12:00:18;27.00;52.50
8539;DHT22;4307;53.868;11.680;2023-06-14T12:02:52;27.10;52.40
8539;DHT22;4307;53.868;11.680;2023-06-14T12:05:21;27.30;52.10
8539;DHT22;4307;53.868;11.680;2023-06-14T12:07:48;27.40;52.40
8539;DHT22;4307;53.868;11.680;2023-06-14T12:10:15;27.60;51.50
8539;DHT22;4307;53.868;11.680;2023-06-14T12:12:44;27.80;51.30
8539;DHT22;4307;53.868;11.680;2023-06-14T12:15:11;27.90;51.00
8539;DHT22;4307;53.868;11.680;2023-06-14T12:17:38;27.90;50.90
8539;DHT22;4307;53.868;11.680;2023-06-14T12:20:09;28.10;50.90
8539;DHT22;4307;53.868;11.680;2023-06-14T12:22:39;28.60;50.70
8539;DHT22;4307;53.868;11.680;2023-06-14T12:25:06;29.10;50.10
8539;DHT22;4307;53.868;11.680;2023-06-14T12:27:35;29.60;49.60
8539;DHT22;4307;53.868;11.680;2023-06-14T12:30:04;29.70;48.70
8539;DHT22;4307;53.868;11.680;2023-06-14T12:32:33;28.90;48.00
8539;DHT22;4307;53.868;11.680;2023-06-14T12:34:59;28.20;48.70
8539;DHT22;4307;53.868;11.680;2023-06-14T12:37:26;27.90;49.00
8539;DHT22;4307;53.868;11.680;2023-06-14T12:39:53;28.20;49.20
8539;DHT22;4307;53.868;11.680;2023-06-14T12:42:19;28.80;48.80
8539;DHT22;4307;53.868;11.680;2023-06-14T12:44:46;29.30;48.20
8539;DHT22;4307;53.868;11.680;2023-06-14T12:47:14;29.90;47.70
8539;DHT22;4307;53.868;11.680;2023-06-14T12:49:41;30.20;47.10
8539;DHT22;4307;53.868;11.680;2023-06-14T12:52:08;29.90;46.80
8539;DHT22;4307;53.868;11.680;2023-06-14T12:54:35;29.40;46.80
8539;DHT22;4307;53.868;11.680;2023-06-14T12:57:01;29.00;47.10
8539;DHT22;4307;53.868;11.680;2023-06-14T12:59:29;29.00;47.70
8539;DHT22;4307;53.868;11.680;2023-06-14T13:01:59;29.80;47.80
8539;DHT22;4307;53.868;11.680;2023-06-14T13:04:27;30.30;46.50
8539;DHT22;4307;53.868;11.680;2023-06-14T13:06:54;30.50;46.20
8539;DHT22;4307;53.868;11.680;2023-06-14T13:09:20;30.80;45.80
8539;DHT22;4307;53.868;11.680;2023-06-14T13:11:47;30.60;45.70
8539;DHT22;4307;53.868;11.680;2023-06-14T13:14:14;30.00;45.10
8539;DHT22;4307;53.868;11.680;2023-06-14T13:16:41;29.50;46.20
8539;DHT22;4307;53.868;11.680;2023-06-14T13:19:08;29.30;46.40
8539;DHT22;4307;53.868;11.680;2023-06-14T13:21:36;29.20;46.10
8539;DHT22;4307;53.868;11.680;2023-06-14T13:24:04;28.90;46.10
8539;DHT22;4307;53.868;11.680;2023-06-14T13:26:31;28.50;46.40
8539;DHT22;4307;53.868;11.680;2023-06-14T13:28:58;28.30;46.80
8539;DHT22;4307;53.868;11.680;2023-06-14T13:31:25;28.10;46.60
8539;DHT22;4307;53.868;11.680;2023-06-14T13:33:52;27.90;46.90
8539;DHT22;4307;53.868;11.680;2023-06-14T13:36:18;27.70;47.40
8539;DHT22;4307;53.868;11.680;2023-06-14T13:38:46;27.70;47.60
8539;DHT22;4307;53.868;11.680;2023-06-14T13:41:13;27.70;47.50
8539;DHT22;4307;53.868;11.680;2023-06-14T13:43:40;27.70;47.50
8539;DHT22;4307;53.868;11.680;2023-06-14T13:46:07;27.60;47.30
8539;DHT22;4307;53.868;11.680;2023-06-14T13:48:33;27.50;47.40
8539;DHT22;4307;53.868;11.680;2023-06-14T13:51:00;27.40;48.00
8539;DHT22;4307;53.868;11.680;2023-06-14T13:53:29;27.30;47.40
8539;DHT22;4307;53.868;11.680;2023-06-14T13:55:57;27.20;47.40
8539;DHT22;4307;53.868;11.680;2023-06-14T13:58:24;27.00;47.80
8539;DHT22;4307;53.868;11.680;2023-06-14T14:00:50;27.00;48.30
8539;DHT22;4307;53.868;11.680;2023-06-14T14:03:18;26.90;48.50
8539;DHT22;4307;53.868;11.680;2023-06-14T14:05:45;27.00;48.50
8539;DHT22;4307;53.868;11.680;2023-06-14T14:08:11;26.90;48.60
8539;DHT22;4307;53.868;11.680;2023-06-14T14:10:38;26.90;48.60
8539;DHT22;4307;53.868;11.680;2023-06-14T14:13:06;26.90;48.70
8539;DHT22;4307;53.868;11.680;2023-06-14T14:15:33;26.80;48.50
8539;DHT22;4307;53.868;11.680;2023-06-14T14:18:00;26.70;48.40
8539;DHT22;4307;53.868;11.680;2023-06-14T14:20:30;26.60;48.30
8539;DHT22;4307;53.868;11.680;2023-06-14T14:22:57;26.40;48.40
8539;DHT22;4307;53.868;11.680;2023-06-14T14:25:23;26.40;49.20
8539;DHT22;4307;53.868;11.680;2023-06-14T14:27:50;26.30;48.40
8539;DHT22;4307;53.868;11.680;2023-06-14T14:30:18;26.10;48.30
8539;DHT22;4307;53.868;11.680;2023-06-14T14:32:48;25.80;48.40
8539;DHT22;4307;53.868;11.680;2023-06-14T14:35:16;25.50;48.60
8539;DHT22;4307;53.868;11.680;2023-06-14T14:37:43;25.40;49.00
8539;DHT22;4307;53.868;11.680;2023-06-14T14:40:11;25.30;49.20
8539;DHT22;4307;53.868;11.680;2023-06-14T14:42:38;25.30;49.40
8539;DHT22;4307;53.868;11.680;2023-06-14T14:45:06;25.20;49.60
8539;DHT22;4307;53.868;11.680;2023-06-14T14:47:34;25.20;49.60
8539;DHT22;4307;53.868;11.680;2023-06-14T14:50:00;25.10;49.60
8539;DHT22;4307;53.868;11.680;2023-06-14T14:52:27;25.20;49.60
8539;DHT22;4307;53.868;11.680;2023-06-14T14:54:54;25.40;49.40
8539;DHT22;4307;53.868;11.680;2023-06-14T14:57:21;25.40;49.20
8539;DHT22;4307;53.868;11.680;2023-06-14T14:59:47;25.40;49.20
8539;DHT22;4307;53.868;11.680;2023-06-14T15:02:14;25.40;49.10
8539;DHT22;4307;53.868;11.680;2023-06-14T15:04:42;25.40;49.30
8539;DHT22;4307;53.868;11.680;2023-06-14T15:07:09;25.40;49.40
8539;DHT22;4307;53.868;11.680;2023-06-14T15:09:35;25.40;49.40
8539;DHT22;4307;53.868;11.680;2023-06-14T15:12:03;25.30;49.00
8539;DHT22;4307;53.868;11.680;2023-06-14T15:14:29;25.20;49.00
8539;DHT22;4307;53.868;11.680;2023-06-14T15:16:56;25.10;49.10
8539;DHT22;4307;53.868;11.680;2023-06-14T15:19:23;25.20;49.10
8539;DHT22;4307;53.868;11.680;2023-06-14T15:21:51;25.20;49.10
8539;DHT22;4307;53.868;11.680;2023-06-14T15:24:18;25.20;49.00
8539;DHT22;4307;53.868;11.680;2023-06-14T15:26:45;25.20;48.90
8539;DHT22;4307;53.868;11.680;2023-06-14T15:29:11;25.10;48.80
8539;DHT22;4307;53.868;11.680;2023-06-14T15:31:38;25.10;48.70
8539;DHT22;4307;53.868;11.680;2023-06-14T15:34:05;25.10;48.70
8539;DHT22;4307;53.868;11.680;2023-06-14T15:36:32;25.00;48.90
8539;DHT22;4307;53.868;11.680;2023-06-14T15:39:00;25.10;48.90
8539;DHT22;4307;53.868;11.680;2023-06-14T15:41:27;25.10;48.70
8539;DHT22;4307;53.868;11.680;2023-06-14T15:43:54;25.00;48.50
8539;DHT22;4307;53.868;11.680;2023-06-14T15:46:21;25.00;48.50
8539;DHT22;4307;53.868;11.680;2023-06-14T15:48:48;25.00;48.50
8539;DHT22;4307;53.868;11.680;2023-06-14T15:51:15;25.00;48.60